createdAt,value
2023-02-09T00:02:10.381Z,48.40
2023-02-09T00:07:13.629Z,44.87
2023-02-09T00:12:35.757Z,25.50
2023-02-09T00:17:39.460Z,47.33
2023-02-09T00:22:42.844Z,50.97
2023-02-09T00:27:46.240Z,48.77
2023-02-09T00:32:49.569Z,48.33
2023-02-09T00:37:52.983Z,44.83
2023-02-09T00:42:56.394Z,50.17
2023-02-09T00:48:00.542Z,46.10
2023-02-09T00:53:03.885Z,55.20
2023-02-09T00:58:07.789Z,34.33
2023-02-09T01:03:11.407Z,34.63
2023-02-09T01:08:14.729Z,43.87
2023-02-09T01:13:18.047Z,36.53
2023-02-09T01:18:21.592Z,36.07
2023-02-09T01:23:24.866Z,35.53
2023-02-09T01:28:28.294Z,47.47
2023-02-09T01:33:32.412Z,41.27
2023-02-09T01:38:35.637Z,46.70
2023-02-09T01:43:58.557Z,38.80
2023-02-09T01:49:16.334Z,48.03
2023-02-09T01:54:38.659Z,41.73
2023-02-09T01:59:45.415Z,45.93
2023-02-09T02:04:49.207Z,31.70
2023-02-09T02:09:53.125Z,37.00
2023-02-09T02:14:56.827Z,49.23
2023-02-09T02:20:18.573Z,27.30
2023-02-09T02:25:52.755Z,41.00
2023-02-09T02:31:28.813Z,33.33
2023-02-09T02:37:10.192Z,41.93
2023-02-09T02:42:42.392Z,31.97
2023-02-09T02:47:58.823Z,40.63
2023-02-09T02:53:06.351Z,30.97
2023-02-09T02:58:13.546Z,38.10
2023-02-09T03:03:22.370Z,38.30
2023-02-09T03:08:25.753Z,40.87
2023-02-09T03:13:59.450Z,36.60
2023-02-09T03:19:14.962Z,41.03
2023-02-09T03:24:40.165Z,27.17
2023-02-09T03:29:49.827Z,41.50
2023-02-09T03:34:53.617Z,38.60
2023-02-09T03:39:57.027Z,38.70
2023-02-09T03:45:00.746Z,53.10
2023-02-09T03:50:07.301Z,50.57
2023-02-09T03:55:10.570Z,42.10
2023-02-09T04:00:14.676Z,53.80
2023-02-09T04:05:18.162Z,34.47
2023-02-09T04:10:21.636Z,33.47
2023-02-09T04:15:25.054Z,25.10
2023-02-09T04:20:28.354Z,27.50
2023-02-09T04:25:31.923Z,38.97
2023-02-09T04:30:35.349Z,32.37
2023-02-09T04:35:38.694Z,30.67
2023-02-09T04:40:42.357Z,25.50
2023-02-09T04:45:46.032Z,33.10
2023-02-09T04:50:50.128Z,38.07
2023-02-09T04:55:54.258Z,34.47
2023-02-09T05:00:58.333Z,33.40
2023-02-09T05:06:04.651Z,43.33
2023-02-09T05:11:08.180Z,23.93
2023-02-09T05:16:15.423Z,30.80
2023-02-09T05:21:18.893Z,35.40
2023-02-09T05:26:22.090Z,27.87
2023-02-09T05:31:25.465Z,21.83
2023-02-09T05:36:28.801Z,27.67
2023-02-09T05:41:50.427Z,36.77
2023-02-09T05:46:53.930Z,27.73
2023-02-09T05:51:57.322Z,25.70
2023-02-09T05:57:00.531Z,27.03
2023-02-09T06:17:44.445Z,46.00
2023-02-09T06:22:47.943Z,53.10
2023-02-09T06:27:51.238Z,42.50
2023-02-09T06:32:54.894Z,44.77
2023-02-09T06:37:59.426Z,34.60
2023-02-09T06:43:02.759Z,41.87
2023-02-09T06:48:06.766Z,37.23
2023-02-09T06:53:10.198Z,38.10
2023-02-09T06:58:13.519Z,30.20
2023-02-09T07:03:17.578Z,37.33
2023-02-09T07:08:21.198Z,41.07
2023-02-09T07:13:24.412Z,41.33
2023-02-09T07:18:28.335Z,37.80
2023-02-09T07:23:31.830Z,34.97
2023-02-09T07:28:37.255Z,47.80
2023-02-09T07:33:41.043Z,43.47
2023-02-09T07:38:44.423Z,51.60
2023-02-09T07:43:48.734Z,37.90
2023-02-09T07:48:52.300Z,51.47
2023-02-09T07:53:58.828Z,54.97
2023-02-09T07:59:02.811Z,57.73
2023-02-09T08:04:06.065Z,47.33
2023-02-09T08:09:11.534Z,48.10
2023-02-09T08:14:25.753Z,44.37
2023-02-09T08:19:31.039Z,47.93
2023-02-09T08:24:34.785Z,65.73
2023-02-09T08:29:42.647Z,59.60
2023-02-09T08:34:45.730Z,50.33
2023-02-09T08:39:49.156Z,53.90
2023-02-09T08:44:52.796Z,60.27
2023-02-09T08:49:56.388Z,61.33
2023-02-09T08:55:00.091Z,68.43
2023-02-09T09:00:04.589Z,76.60
2023-02-09T09:05:09.101Z,60.07
2023-02-09T09:10:13.442Z,54.17
2023-02-09T09:15:17.033Z,78.20
2023-02-09T09:20:20.570Z,76.60
2023-02-09T09:25:23.789Z,80.73
2023-02-09T09:30:28.026Z,60.03
2023-02-09T09:35:31.657Z,59.13
2023-02-09T09:40:36.986Z,63.80
2023-02-09T09:45:40.745Z,74.93
2023-02-09T09:50:46.203Z,60.53
2023-02-09T09:55:55.614Z,69.67
2023-02-09T10:00:59.132Z,61.00
2023-02-09T10:06:15.851Z,68.27
2023-02-09T10:11:25.559Z,63.10
2023-02-09T10:16:36.127Z,66.57
2023-02-09T10:21:40.742Z,48.83
2023-02-09T10:26:45.628Z,49.70
2023-02-09T10:31:55.581Z,68.53
2023-02-09T10:37:20.969Z,56.93
2023-02-09T10:42:33.997Z,51.60
2023-02-09T10:47:39.018Z,63.17
2023-02-09T10:53:02.354Z,45.50
2023-02-09T10:58:11.943Z,62.10
2023-02-09T11:03:25.782Z,65.20
2023-02-09T11:08:46.514Z,59.03
2023-02-09T11:13:50.447Z,63.17
2023-02-09T11:19:14.624Z,52.70
2023-02-09T11:25:12.180Z,68.07
2023-02-09T11:30:43.072Z,75.67
2023-02-09T11:35:59.270Z,75.83
2023-02-09T11:41:24.471Z,62.33
2023-02-09T11:46:32.295Z,73.03
2023-02-09T11:51:38.809Z,73.00
2023-02-09T11:56:46.778Z,69.40
2023-02-09T12:02:04.941Z,67.13
2023-02-09T12:07:17.551Z,62.47
2023-02-09T12:12:39.699Z,61.20
2023-02-09T12:17:46.017Z,56.97
2023-02-09T12:23:08.143Z,56.27
2023-02-09T12:28:17.300Z,58.27
2023-02-09T12:33:31.361Z,63.73
2023-02-09T12:39:04.646Z,56.63
2023-02-09T12:44:11.683Z,47.27
2023-02-09T12:49:14.941Z,60.03
2023-02-09T12:54:46.210Z,52.50
2023-02-09T12:59:53.686Z,58.03
2023-02-09T13:05:10.231Z,59.13
2023-02-09T13:10:26.011Z,59.07
2023-02-09T13:15:47.686Z,55.73
2023-02-09T13:20:57.955Z,39.87
2023-02-09T13:26:24.346Z,52.13
2023-02-09T13:31:36.138Z,42.00
2023-02-09T13:37:15.189Z,52.80
2023-02-09T13:42:21.379Z,51.50
2023-02-09T13:47:26.162Z,60.80
2023-02-09T13:52:39.139Z,66.53
2023-02-09T13:57:46.158Z,60.87
2023-02-09T14:03:01.303Z,54.13
2023-02-09T14:08:05.310Z,47.13
2023-02-09T14:13:15.311Z,53.90
2023-02-09T14:18:40.438Z,47.10
2023-02-09T14:24:08.705Z,43.70
2023-02-09T14:29:16.902Z,39.80
2023-02-09T14:34:40.782Z,51.20
2023-02-09T14:39:55.189Z,47.40
2023-02-09T14:45:15.698Z,45.23
2023-02-09T14:50:22.636Z,50.83
2023-02-09T14:55:30.138Z,51.40
2023-02-09T15:00:34.280Z,38.23
2023-02-09T15:05:37.925Z,46.27
2023-02-09T15:10:48.839Z,44.30
2023-02-09T15:15:52.644Z,47.07
2023-02-09T15:20:56.441Z,47.50
2023-02-09T15:25:59.844Z,53.53
2023-02-09T15:31:04.164Z,46.63
2023-02-09T15:36:08.895Z,48.83
2023-02-09T15:41:31.059Z,44.87
2023-02-09T15:46:53.428Z,42.87
2023-02-09T15:51:57.717Z,40.97
2023-02-09T15:57:01.814Z,46.27
2023-02-09T16:02:24.061Z,52.40
2023-02-09T16:07:27.597Z,50.13
2023-02-09T16:12:31.152Z,43.50
2023-02-09T16:17:43.294Z,38.13
2023-02-09T16:22:53.521Z,37.87
2023-02-09T16:27:58.321Z,41.67
2023-02-09T16:33:04.419Z,37.60
2023-02-09T16:38:21.432Z,49.23
2023-02-09T16:43:25.377Z,45.10
2023-02-09T16:48:35.070Z,47.67
2023-02-09T16:53:52.300Z,43.50
2023-02-09T16:58:56.960Z,46.80
2023-02-09T17:04:02.362Z,61.47
2023-02-09T17:09:13.560Z,71.80
2023-02-09T17:14:19.248Z,60.83
2023-02-09T17:19:33.102Z,58.80
2023-02-09T17:24:45.899Z,63.77
2023-02-09T17:29:49.578Z,69.07
2023-02-09T17:34:55.317Z,69.60
2023-02-09T17:40:06.576Z,66.67
2023-02-09T17:45:22.372Z,64.97
2023-02-09T17:50:27.830Z,63.37
2023-02-09T17:55:32.607Z,56.53
2023-02-09T18:00:40.572Z,42.30
2023-02-09T18:05:49.529Z,53.17
2023-02-09T18:10:56.630Z,54.27
2023-02-09T18:16:03.353Z,64.40
2023-02-09T18:21:13.982Z,97.87
2023-02-09T18:26:19.409Z,74.30
2023-02-09T18:31:26.163Z,79.43
2023-02-09T18:36:33.926Z,79.30
2023-02-09T18:41:42.426Z,86.43
2023-02-09T18:46:48.804Z,76.33
2023-02-09T18:51:54.243Z,59.97
2023-02-09T18:57:02.914Z,54.60
2023-02-09T19:02:16.454Z,51.77
2023-02-09T19:07:22.918Z,44.83
2023-02-09T19:12:35.158Z,47.33
2023-02-09T19:17:48.057Z,35.37
2023-02-09T19:22:57.606Z,35.37
2023-02-09T19:28:03.599Z,32.70
2023-02-09T19:33:09.151Z,34.17
2023-02-09T19:38:14.412Z,36.17
2023-02-09T19:43:21.883Z,31.17
2023-02-09T19:48:32.668Z,33.20
2023-02-09T19:53:40.840Z,30.37
2023-02-09T19:58:47.509Z,28.97
2023-02-09T20:03:54.757Z,27.03
2023-02-09T20:09:04.406Z,36.27
2023-02-09T20:14:14.347Z,32.43
2023-02-09T20:19:19.737Z,29.40
2023-02-09T20:24:27.386Z,26.73
2023-02-09T20:29:32.963Z,31.03
2023-02-09T20:34:39.949Z,34.80
2023-02-09T20:39:46.442Z,38.33
2023-02-09T20:45:10.392Z,35.37
2023-02-09T20:50:18.195Z,33.53
2023-02-09T20:55:29.094Z,22.10
2023-02-09T21:00:34.386Z,26.80
2023-02-09T21:05:40.750Z,22.20
2023-02-09T21:10:47.818Z,30.23
2023-02-09T21:15:53.965Z,28.23
2023-02-09T21:21:01.635Z,26.20
2023-02-09T21:26:08.881Z,28.70
2023-02-09T21:31:18.452Z,22.23
2023-02-09T21:36:24.030Z,26.60
2023-02-09T21:41:46.961Z,27.63
2023-02-09T21:46:51.084Z,28.67
2023-02-09T21:51:54.577Z,25.77
2023-02-09T21:56:57.702Z,33.50
2023-02-09T22:02:00.982Z,28.13
2023-02-09T22:07:04.681Z,28.13
2023-02-09T22:12:09.144Z,32.27
2023-02-09T22:17:15.604Z,29.50
2023-02-09T22:22:20.106Z,27.47
2023-02-09T22:27:23.767Z,23.63
2023-02-09T22:32:27.161Z,30.53
2023-02-09T22:37:30.837Z,24.87
2023-02-09T22:42:34.504Z,24.60
2023-02-09T22:47:38.241Z,26.80
2023-02-09T22:52:41.422Z,23.90
2023-02-09T22:57:44.824Z,23.57
2023-02-09T23:02:49.281Z,21.40
2023-02-09T23:07:52.710Z,33.53
2023-02-09T23:12:55.893Z,31.53
2023-02-09T23:17:59.163Z,25.47
2023-02-09T23:23:06.922Z,27.93
2023-02-09T23:28:10.299Z,28.67
2023-02-09T23:33:13.638Z,22.50
2023-02-09T23:38:18.447Z,26.23
2023-02-09T23:43:21.877Z,26.40
2023-02-09T23:48:25.669Z,25.30
2023-02-09T23:53:30.379Z,27.30
2023-02-09T23:58:38.646Z,25.07
